Curtis Field


Codes: KBBD/BBD
Name: Curtis Field
City: Brady
Country: United States
Elevation: 1827 ft.
Wikipedia:

Photos at Curtis Field


   Photos courtesy of SpottingLog. You can add your own sightings and photos by signing up for a free trial today.



No photos found.

Weather at Curtis Field


Time (UTC)DescriptionTempratureWindCloud coverageVisibilityPressureHumidity
25-Jun-2024 15:00Clear Sky28°C13 mph, S0%10000m1013hPa61%
25-Jun-2024 18:00Clear Sky30°C13 mph, S2%10000m1013hPa54%
25-Jun-2024 21:00Clear Sky34°C16 mph, S7%10000m1011hPa41%
26-Jun-2024 00:00Few Clouds36°C16 mph, S11%10000m1008hPa31%
26-Jun-2024 03:00Few Clouds28°C18 mph, S15%10000m1010hPa65%
26-Jun-2024 06:00Clear Sky26°C16 mph, S7%10000m1012hPa75%
26-Jun-2024 09:00Scattered Clouds25°C13 mph, S29%10000m1011hPa84%
26-Jun-2024 12:00Broken Clouds24°C11 mph, S64%10000m1012hPa88%
26-Jun-2024 15:00Broken Clouds29°C11 mph, SW51%10000m1012hPa60%
26-Jun-2024 18:00Scattered Clouds35°C9 mph, SE25%10000m1011hPa39%
26-Jun-2024 21:00Clear Sky37°C11 mph, SE0%10000m1009hPa32%
27-Jun-2024 00:00Few Clouds36°C13 mph, SE14%10000m1007hPa32%
27-Jun-2024 03:00Clear Sky30°C13 mph, SE0%10000m1009hPa47%
27-Jun-2024 06:00Few Clouds27°C16 mph, S23%10000m1010hPa66%
27-Jun-2024 09:00Clear Sky25°C13 mph, S7%10000m1010hPa78%
27-Jun-2024 12:00Few Clouds24°C9 mph, SW18%10000m1011hPa84%
27-Jun-2024 15:00Overcast Clouds30°C9 mph, S100%10000m1010hPa58%
27-Jun-2024 18:00Overcast Clouds34°C11 mph, S100%10000m1009hPa40%
27-Jun-2024 21:00Overcast Clouds36°C13 mph, S100%10000m1006hPa30%
28-Jun-2024 00:00Overcast Clouds35°C16 mph, S100%10000m1005hPa31%
28-Jun-2024 03:00Overcast Clouds29°C22 mph, S100%10000m1007hPa57%
28-Jun-2024 06:00Overcast Clouds26°C18 mph, S95%10000m1008hPa69%
28-Jun-2024 09:00Broken Clouds24°C16 mph, S56%10000m1008hPa83%
28-Jun-2024 12:00Broken Clouds22°C13 mph, S66%10000m1008hPa91%
28-Jun-2024 15:00Few Clouds28°C18 mph, S15%10000m1008hPa59%
28-Jun-2024 18:00Few Clouds33°C18 mph, S11%10000m1007hPa39%
28-Jun-2024 21:00Scattered Clouds36°C18 mph, S29%10000m1005hPa29%
29-Jun-2024 00:00Few Clouds33°C22 mph, S19%10000m1005hPa41%
29-Jun-2024 03:00Clear Sky27°C20 mph, S5%10000m1008hPa66%
29-Jun-2024 06:00Clear Sky25°C20 mph, S3%10000m1010hPa83%
29-Jun-2024 09:00Few Clouds24°C18 mph, S18%10000m1010hPa87%
29-Jun-2024 12:00Scattered Clouds25°C20 mph, S50%10000m1012hPa75%
29-Jun-2024 15:00Scattered Clouds29°C20 mph, S31%10000m1014hPa53%
29-Jun-2024 18:00Few Clouds34°C20 mph, S17%10000m1014hPa32%
29-Jun-2024 21:00Clear Sky36°C20 mph, S5%10000m1012hPa31%
30-Jun-2024 00:00Clear Sky33°C18 mph, SE5%10000m1013hPa40%
30-Jun-2024 03:00Clear Sky28°C16 mph, S1%10000m1014hPa59%
30-Jun-2024 06:00Clear Sky26°C13 mph, SE1%10000m1018hPa79%
30-Jun-2024 09:00Clear Sky24°C16 mph, S2%10000m1018hPa88%
30-Jun-2024 12:00Few Clouds23°C13 mph, S14%10000m1019hPa83%